createdAt,value
2018-11-14T00:01:27.497Z,102600.28
2018-11-14T00:03:55.178Z,102600.72
2018-11-14T00:06:23.131Z,102604.23
2018-11-14T00:08:51.113Z,102612.55
2018-11-14T00:11:18.833Z,102615.17
2018-11-14T00:13:46.487Z,102619.95
2018-11-14T00:16:14.188Z,102629.13
2018-11-14T00:18:41.791Z,102631.73
2018-11-14T00:21:09.549Z,102632.64
2018-11-14T00:23:37.219Z,102632.64
2018-11-14T00:26:05.718Z,102631.73
2018-11-14T00:28:33.320Z,102637.84
2018-11-14T00:31:01.051Z,102643.06
2018-11-14T00:33:28.685Z,102639.60
2018-11-14T00:35:56.286Z,102639.13
2018-11-14T00:38:24.116Z,102635.22
2018-11-14T00:40:51.789Z,102634.78
2018-11-14T00:43:19.568Z,102642.22
2018-11-14T00:45:47.238Z,102646.99
2018-11-14T00:48:14.869Z,102648.30
2018-11-14T00:50:43.457Z,102653.14
2018-11-14T00:53:11.575Z,102655.77
2018-11-14T00:55:40.011Z,102664.08
2018-11-14T00:58:08.270Z,102663.21
2018-11-14T01:00:35.905Z,102664.08
2018-11-14T01:03:04.332Z,102661.92
2018-11-14T01:05:32.146Z,102666.28
2018-11-14T01:07:59.779Z,102665.41
2018-11-14T01:10:27.837Z,102664.52
2018-11-14T01:12:55.521Z,102671.05
2018-11-14T01:15:23.652Z,102674.13
2018-11-14T01:17:51.300Z,102669.72
2018-11-14T01:20:20.594Z,102678.05
2018-11-14T01:22:48.321Z,102688.98
2018-11-14T01:25:16.823Z,102684.19
2018-11-14T01:27:45.465Z,102683.32
2018-11-14T01:30:19.318Z,102683.30
2018-11-14T01:32:48.006Z,102684.17
2018-11-14T01:35:16.801Z,102693.78
2018-11-14T01:37:44.497Z,102694.30
2018-11-14T01:40:14.673Z,102690.84
2018-11-14T01:42:42.817Z,102685.64
2018-11-14T01:45:10.925Z,102686.53
2018-11-14T01:47:38.610Z,102676.92
2018-11-14T01:50:07.593Z,102681.25
2018-11-14T01:52:35.250Z,102680.30
2018-11-14T01:55:02.833Z,102677.20
2018-11-14T01:57:30.450Z,102674.52
2018-11-14T01:59:58.067Z,102675.81
2018-11-14T02:02:25.705Z,102677.50
2018-11-14T02:04:53.349Z,102671.42
2018-11-14T02:07:21.426Z,102674.50
2018-11-14T02:09:49.344Z,102668.35
2018-11-14T02:12:17.013Z,102658.72
2018-11-14T02:14:44.629Z,102656.55
2018-11-14T02:17:12.288Z,102659.17
2018-11-14T02:19:39.948Z,102659.59
2018-11-14T02:22:07.847Z,102664.84
2018-11-14T02:24:35.466Z,102659.55
2018-11-14T02:27:03.075Z,102658.69
2018-11-14T02:29:30.727Z,102664.80
2018-11-14T02:31:58.320Z,102661.72
2018-11-14T02:34:26.022Z,102670.87
2018-11-14T02:36:53.979Z,102679.59
2018-11-14T02:39:21.632Z,102687.02
2018-11-14T02:41:49.289Z,102691.81
2018-11-14T02:44:16.881Z,102687.87
2018-11-14T02:46:44.601Z,102695.29
2018-11-14T02:49:12.297Z,102694.00
2018-11-14T02:51:39.884Z,102697.45
2018-11-14T02:54:07.492Z,102687.41
2018-11-14T02:56:35.146Z,102695.70
2018-11-14T02:59:02.791Z,102694.39
2018-11-14T03:01:30.630Z,102692.65
2018-11-14T03:03:58.211Z,102680.84
2018-11-14T03:06:25.812Z,102679.97
2018-11-14T03:08:53.485Z,102684.33
2018-11-14T03:11:21.116Z,102683.87
2018-11-14T03:13:48.769Z,102679.97
2018-11-14T03:16:16.436Z,102676.47
2018-11-14T03:18:44.047Z,102675.59
2018-11-14T03:21:11.717Z,102679.50
2018-11-14T03:23:39.319Z,102677.75
2018-11-14T03:26:06.945Z,102682.56
2018-11-14T03:28:34.559Z,102675.59
2018-11-14T03:31:02.241Z,102675.58
2018-11-14T03:33:29.856Z,102675.11
2018-11-14T03:36:03.104Z,102676.89
2018-11-14T03:38:30.757Z,102675.16
2018-11-14T03:40:58.377Z,102668.14
2018-11-14T03:43:25.991Z,102667.70
2018-11-14T03:45:53.613Z,102668.55
2018-11-14T03:48:21.280Z,102673.80
2018-11-14T03:50:48.949Z,102675.14
2018-11-14T03:53:16.605Z,102665.92
2018-11-14T03:55:44.253Z,102671.16
2018-11-14T03:58:11.959Z,102674.66
2018-11-14T04:00:39.601Z,102675.05
2018-11-14T04:03:07.246Z,102672.03
2018-11-14T04:05:34.976Z,102678.58
2018-11-14T04:08:02.542Z,102688.63
2018-11-14T04:10:30.188Z,102686.00
2018-11-14T04:12:57.825Z,102684.20
2018-11-14T04:15:25.497Z,102687.27
2018-11-14T04:17:53.136Z,102698.18
2018-11-14T04:20:20.725Z,102699.48
2018-11-14T04:22:48.360Z,102702.55
2018-11-14T04:25:19.487Z,102698.16
2018-11-14T04:27:47.794Z,102693.81
2018-11-14T04:30:17.240Z,102692.92
2018-11-14T04:32:44.921Z,102695.98
2018-11-14T04:35:13.868Z,102695.52
2018-11-14T04:37:41.504Z,102686.36
2018-11-14T04:40:11.840Z,102691.61
2018-11-14T04:42:39.692Z,102699.91
2018-11-14T04:45:09.432Z,102707.32
2018-11-14T04:47:43.945Z,102709.97
2018-11-14T04:50:15.044Z,102712.14
2018-11-14T04:52:43.594Z,102711.70
2018-11-14T04:55:13.152Z,102708.67
2018-11-14T04:57:41.560Z,102712.58
2018-11-14T05:00:10.920Z,102702.55
2018-11-14T05:02:39.728Z,102703.84
2018-11-14T05:05:09.588Z,102702.98
2018-11-14T05:07:37.464Z,102698.59
2018-11-14T05:10:06.819Z,102692.07
2018-11-14T05:12:34.476Z,102707.39
2018-11-14T05:15:02.146Z,102706.95
2018-11-14T05:17:29.784Z,102706.95
2018-11-14T05:19:57.456Z,102712.19
2018-11-14T05:22:25.033Z,102710.88
2018-11-14T05:24:52.658Z,102716.11
2018-11-14T05:27:20.287Z,102725.30
2018-11-14T05:29:47.944Z,102711.78
2018-11-14T05:32:15.519Z,102716.12
2018-11-14T05:34:43.195Z,102717.41
2018-11-14T05:37:10.769Z,102719.19
2018-11-14T05:39:38.641Z,102718.33
2018-11-14T05:42:06.268Z,102727.11
2018-11-14T05:44:33.944Z,102732.37
2018-11-14T05:47:02.710Z,102727.54
2018-11-14T05:49:30.489Z,102731.88
2018-11-14T05:51:58.196Z,102726.67
2018-11-14T05:54:25.934Z,102733.20
2018-11-14T05:56:54.469Z,102741.49
2018-11-14T05:59:22.428Z,102742.36
2018-11-14T06:01:50.106Z,102751.09
2018-11-14T06:04:17.718Z,102753.70
2018-11-14T06:06:45.377Z,102757.21
2018-11-14T06:09:13.998Z,102760.29
2018-11-14T06:11:41.906Z,102759.44
2018-11-14T06:14:09.592Z,102763.36
2018-11-14T06:16:37.260Z,102762.03
2018-11-14T06:19:05.425Z,102761.60
2018-11-14T06:21:34.099Z,102758.52
2018-11-14T06:24:01.726Z,102752.86
2018-11-14T06:26:29.335Z,102755.04
2018-11-14T06:28:57.006Z,102754.59
2018-11-14T06:31:24.641Z,102757.65
2018-11-14T06:33:52.258Z,102761.14
2018-11-14T06:36:19.949Z,102765.94
2018-11-14T06:38:47.592Z,102766.83
2018-11-14T06:41:15.220Z,102772.97
2018-11-14T06:43:42.963Z,102770.35
2018-11-14T06:46:10.600Z,102777.36
2018-11-14T06:48:38.293Z,102780.88
2018-11-14T06:51:05.933Z,102780.45
2018-11-14T06:53:33.551Z,102783.95
2018-11-14T06:56:01.211Z,102793.15
2018-11-14T06:58:28.863Z,102789.22
2018-11-14T07:00:56.538Z,102786.17
2018-11-14T07:03:24.146Z,102794.52
2018-11-14T07:05:51.977Z,102798.03
2018-11-14T07:08:19.538Z,102797.14
2018-11-14T07:10:47.238Z,102798.01
2018-11-14T07:13:14.916Z,102797.11
2018-11-14T07:15:42.816Z,102793.60
2018-11-14T07:18:11.152Z,102796.22
2018-11-14T07:20:40.783Z,102796.27
2018-11-14T07:23:08.634Z,102798.47
2018-11-14T07:25:36.475Z,102800.17
2018-11-14T07:28:04.598Z,102807.19
2018-11-14T07:30:33.241Z,102803.73
2018-11-14T07:33:03.463Z,102800.69
2018-11-14T07:35:32.385Z,102802.92
2018-11-14T07:38:50.766Z,102798.53
2018-11-14T07:41:23.757Z,102803.28
2018-11-14T07:43:51.630Z,102801.97
2018-11-14T07:46:19.862Z,102794.52
2018-11-14T07:48:48.624Z,102799.30
2018-11-14T07:51:16.521Z,102800.16
2018-11-14T07:53:44.578Z,102800.17
2018-11-14T07:56:12.531Z,102802.81
2018-11-14T07:58:42.382Z,102804.12
2018-11-14T08:01:10.267Z,102805.87
2018-11-14T08:03:38.227Z,102814.58
2018-11-14T08:06:06.262Z,102812.41
2018-11-14T08:08:34.338Z,102810.63
2018-11-14T08:11:02.350Z,102816.77
2018-11-14T08:13:31.251Z,102821.13
2018-11-14T08:16:00.012Z,102822.00
2018-11-14T08:18:27.868Z,102829.86
2018-11-14T08:20:56.366Z,102832.90
2018-11-14T08:23:24.370Z,102836.44
2018-11-14T08:25:52.369Z,102848.25
2018-11-14T08:28:20.267Z,102850.84
2018-11-14T08:30:48.331Z,102851.31
2018-11-14T08:33:16.268Z,102851.75
2018-11-14T08:35:44.197Z,102843.87
2018-11-14T08:38:13.133Z,102848.28
2018-11-14T08:40:41.023Z,102856.17
2018-11-14T08:43:09.184Z,102850.93
2018-11-14T08:45:37.375Z,102862.72
2018-11-14T08:48:05.768Z,102864.05
2018-11-14T08:50:33.682Z,102860.13
2018-11-14T08:53:01.771Z,102861.44
2018-11-14T08:55:29.656Z,102859.23
2018-11-14T08:58:00.632Z,102861.44
2018-11-14T09:00:29.159Z,102861.02
2018-11-14T09:02:57.074Z,102866.25
2018-11-14T09:05:25.077Z,102868.88
2018-11-14T09:07:53.257Z,102872.80
2018-11-14T09:10:25.361Z,102867.56
2018-11-14T09:12:53.501Z,102860.13
2018-11-14T09:15:22.629Z,102857.92
2018-11-14T09:17:50.501Z,102856.22
2018-11-14T09:20:19.861Z,102860.61
2018-11-14T09:22:47.610Z,102858.39
2018-11-14T09:25:19.140Z,102867.12
2018-11-14T09:27:47.023Z,102871.97
2018-11-14T09:30:18.147Z,102874.59
2018-11-14T09:32:46.042Z,102880.69
2018-11-14T09:35:15.074Z,102878.95
2018-11-14T09:37:43.209Z,102883.77
2018-11-14T09:40:12.554Z,102883.77
2018-11-14T09:42:40.832Z,102890.33
2018-11-14T09:45:11.578Z,102884.64
2018-11-14T09:47:39.411Z,102888.57
2018-11-14T09:50:12.841Z,102898.64
2018-11-14T09:52:40.686Z,102902.98
2018-11-14T09:55:09.387Z,102899.08
2018-11-14T09:57:39.292Z,102897.79
2018-11-14T10:00:14.331Z,102891.69
2018-11-14T10:02:42.805Z,102891.73
2018-11-14T10:05:13.405Z,102879.49
2018-11-14T10:10:10.062Z,102882.16
2018-11-14T10:12:38.111Z,102866.87
2018-11-14T10:15:08.111Z,102883.48
2018-11-14T10:17:36.123Z,102880.42
2018-11-14T10:20:04.359Z,102873.83
2018-11-14T10:22:32.080Z,102865.97
2018-11-14T10:25:00.323Z,102865.53
2018-11-14T10:27:28.133Z,102872.09
2018-11-14T10:29:56.252Z,102869.89
2018-11-14T10:32:24.412Z,102862.45
2018-11-14T10:34:52.422Z,102855.48
2018-11-14T10:37:20.242Z,102850.28
2018-11-14T10:39:48.490Z,102844.14
2018-11-14T10:42:16.527Z,102852.42
2018-11-14T10:44:44.756Z,102853.73
2018-11-14T10:47:12.665Z,102855.05
2018-11-14T10:49:40.588Z,102852.91
2018-11-14T10:52:08.580Z,102854.66
2018-11-14T10:54:36.519Z,102856.43
2018-11-14T10:57:04.429Z,102856.02
2018-11-14T10:59:32.368Z,102857.76
2018-11-14T11:02:05.531Z,102848.14
2018-11-14T11:04:38.820Z,102861.25
2018-11-14T11:07:12.013Z,102856.43
2018-11-14T11:09:45.205Z,102861.67
2018-11-14T11:12:18.396Z,102867.81
2018-11-14T11:14:51.709Z,102857.42
2018-11-14T11:17:24.853Z,102859.66
2018-11-14T11:19:52.596Z,102859.23
2018-11-14T11:22:20.542Z,102857.91
2018-11-14T11:24:48.757Z,102851.33
2018-11-14T11:27:16.505Z,102857.43
2018-11-14T11:29:44.218Z,102864.90
2018-11-14T11:32:12.066Z,102858.78
2018-11-14T11:34:39.622Z,102861.41
2018-11-14T11:37:07.304Z,102854.88
2018-11-14T11:39:34.976Z,102850.95
2018-11-14T11:42:02.888Z,102844.43
2018-11-14T11:44:32.553Z,102847.51
2018-11-14T11:47:00.131Z,102847.52
2018-11-14T11:49:28.068Z,102846.67
2018-11-14T11:51:58.584Z,102838.86
2018-11-14T11:54:26.666Z,102840.22
2018-11-14T11:56:54.473Z,102847.66
2018-11-14T11:59:22.503Z,102838.04
2018-11-14T12:01:50.586Z,102845.06
2018-11-14T12:04:18.454Z,102850.32
2018-11-14T12:06:46.512Z,102850.34
2018-11-14T12:09:14.481Z,102851.21
2018-11-14T12:11:42.512Z,102847.26
2018-11-14T12:14:10.637Z,102846.80
2018-11-14T12:16:38.474Z,102843.30
2018-11-14T12:19:06.452Z,102836.31
2018-11-14T12:21:34.280Z,102835.86
2018-11-14T12:24:02.152Z,102839.35
2018-11-14T12:26:30.009Z,102833.69
2018-11-14T12:28:57.862Z,102825.82
2018-11-14T12:31:25.791Z,102825.38
2018-11-14T12:33:53.661Z,102823.67
2018-11-14T12:36:21.620Z,102831.13
2018-11-14T12:38:49.528Z,102831.13
2018-11-14T12:41:17.392Z,102828.95
2018-11-14T12:43:45.274Z,102816.72
2018-11-14T12:46:13.081Z,102809.29
2018-11-14T12:48:41.059Z,102801.41
2018-11-14T12:51:08.961Z,102805.34
2018-11-14T12:53:36.922Z,102810.60
2018-11-14T12:56:04.772Z,102811.91
2018-11-14T12:58:33.004Z,102808.39
2018-11-14T13:01:00.863Z,102803.64
2018-11-14T13:03:28.711Z,102808.02
2018-11-14T13:05:56.458Z,102810.64
2018-11-14T13:08:24.308Z,102809.77
2018-11-14T13:10:52.102Z,102811.08
2018-11-14T13:13:19.987Z,102805.41
2018-11-14T13:15:47.856Z,102811.09
2018-11-14T13:18:15.684Z,102808.89
2018-11-14T13:20:43.584Z,102801.05
2018-11-14T13:23:11.476Z,102802.39
2018-11-14T13:25:39.431Z,102799.75
2018-11-14T13:28:07.404Z,102796.21
2018-11-14T13:30:35.293Z,102797.08
2018-11-14T13:33:03.222Z,102794.90
2018-11-14T13:35:31.106Z,102794.46
2018-11-14T13:37:58.855Z,102800.11
2018-11-14T13:40:26.741Z,102795.30
2018-11-14T13:42:54.805Z,102801.86
2018-11-14T13:45:22.925Z,102802.70
2018-11-14T13:47:50.975Z,102802.71
2018-11-14T13:50:20.629Z,102802.22
2018-11-14T13:52:48.733Z,102796.53
2018-11-14T13:55:17.806Z,102786.92
2018-11-14T13:57:47.056Z,102795.23
2018-11-14T14:00:16.467Z,102793.91
2018-11-14T14:02:44.864Z,102793.91
2018-11-14T14:05:14.062Z,102797.84
2018-11-14T14:07:41.977Z,102804.42
2018-11-14T14:10:11.326Z,102801.38
2018-11-14T14:12:39.736Z,102801.34
2018-11-14T14:15:10.292Z,102803.53
2018-11-14T14:17:38.308Z,102803.08
2018-11-14T14:20:07.498Z,102806.15
2018-11-14T14:22:35.720Z,102798.28
2018-11-14T14:25:04.001Z,102803.53
2018-11-14T14:27:32.069Z,102800.45
2018-11-14T14:30:00.007Z,102796.52
2018-11-14T14:32:27.657Z,102793.88
2018-11-14T14:34:55.307Z,102791.25
2018-11-14T14:37:22.909Z,102790.81
2018-11-14T14:39:50.522Z,102790.36
2018-11-14T14:42:18.220Z,102786.88
2018-11-14T14:44:45.841Z,102786.41
2018-11-14T14:47:13.482Z,102786.84
2018-11-14T14:49:41.196Z,102785.47
2018-11-14T14:52:08.846Z,102790.28
2018-11-14T14:54:36.471Z,102796.38
2018-11-14T14:57:04.395Z,102796.86
2018-11-14T14:59:32.033Z,102797.25
2018-11-14T15:01:59.709Z,102788.08
2018-11-14T15:04:27.409Z,102788.97
2018-11-14T15:06:55.025Z,102788.95
2018-11-14T15:09:22.748Z,102782.37
2018-11-14T15:11:50.365Z,102779.30
2018-11-14T15:14:18.036Z,102781.50
2018-11-14T15:16:45.798Z,102781.50
2018-11-14T15:19:13.418Z,102775.36
2018-11-14T15:21:41.068Z,102770.56
2018-11-14T15:24:08.736Z,102771.84
2018-11-14T15:26:36.424Z,102768.81
2018-11-14T15:29:04.150Z,102772.78
2018-11-14T15:31:31.700Z,102771.48
2018-11-14T15:33:59.400Z,102772.78
2018-11-14T15:36:27.021Z,102773.61
2018-11-14T15:38:54.674Z,102773.59
2018-11-14T15:41:22.289Z,102770.08
2018-11-14T15:43:49.947Z,102765.31
2018-11-14T15:46:17.583Z,102771.86
2018-11-14T15:48:45.194Z,102768.77
2018-11-14T15:51:12.860Z,102775.33
2018-11-14T15:53:40.618Z,102774.48
2018-11-14T15:56:08.318Z,102775.78
2018-11-14T15:58:36.051Z,102774.01
2018-11-14T16:01:04.401Z,102774.01
2018-11-14T16:03:32.037Z,102772.70
2018-11-14T16:05:59.716Z,102780.11
2018-11-14T16:08:27.330Z,102775.34
2018-11-14T16:10:54.996Z,102775.30
2018-11-14T16:13:22.623Z,102773.09
2018-11-14T16:15:50.242Z,102773.12
2018-11-14T16:18:17.853Z,102770.48
2018-11-14T16:20:45.493Z,102766.10
2018-11-14T16:23:13.134Z,102770.48
2018-11-14T16:25:40.771Z,102764.81
2018-11-14T16:28:08.381Z,102764.80
2018-11-14T16:30:36.933Z,102763.05
2018-11-14T16:33:05.852Z,102766.50
2018-11-14T16:35:33.618Z,102771.75
2018-11-14T16:38:01.299Z,102772.64
2018-11-14T16:40:32.317Z,102773.53
2018-11-14T16:43:01.201Z,102776.57
2018-11-14T16:45:28.784Z,102782.23
2018-11-14T16:47:56.597Z,102786.16
2018-11-14T16:50:24.562Z,102787.08
2018-11-14T16:52:52.233Z,102782.23
2018-11-14T16:55:20.642Z,102786.62
2018-11-14T16:57:49.069Z,102777.47
2018-11-14T17:00:21.927Z,102774.84
2018-11-14T17:02:49.568Z,102766.50
2018-11-14T17:05:17.510Z,102776.57
2018-11-14T17:07:45.153Z,102777.91
2018-11-14T17:10:13.937Z,102789.27
2018-11-14T17:12:42.204Z,102784.47
2018-11-14T17:15:11.634Z,102781.41
2018-11-14T17:17:39.248Z,102790.57
2018-11-14T17:20:07.285Z,102785.74
2018-11-14T17:22:34.951Z,102779.61
2018-11-14T17:25:02.582Z,102781.80
2018-11-14T17:27:30.188Z,102784.85
2018-11-14T17:29:57.916Z,102781.81
2018-11-14T17:32:25.648Z,102780.92
2018-11-14T17:34:53.422Z,102776.55
2018-11-14T17:37:21.089Z,102780.94
2018-11-14T17:39:48.726Z,102780.46
2018-11-14T17:42:16.434Z,102777.42
2018-11-14T17:44:44.057Z,102771.73
2018-11-14T17:47:11.661Z,102776.98
2018-11-14T17:49:39.329Z,102775.67
2018-11-14T17:52:06.937Z,102777.00
2018-11-14T17:54:34.560Z,102777.00
2018-11-14T17:57:02.174Z,102776.98
2018-11-14T17:59:29.816Z,102782.63
2018-11-14T18:01:57.482Z,102782.20
2018-11-14T18:04:25.067Z,102786.59
2018-11-14T18:06:52.739Z,102785.70
2018-11-14T18:09:20.343Z,102794.44
2018-11-14T18:11:48.018Z,102784.39
2018-11-14T18:14:15.635Z,102795.75
2018-11-14T18:16:43.228Z,102793.58
2018-11-14T18:19:10.896Z,102797.95
2018-11-14T18:21:38.520Z,102792.26
2018-11-14T18:24:07.144Z,102794.42
2018-11-14T18:26:34.735Z,102793.58
2018-11-14T18:29:02.385Z,102789.65
2018-11-14T18:31:30.076Z,102787.87
2018-11-14T18:33:57.724Z,102790.96
2018-11-14T18:36:25.413Z,102787.01
2018-11-14T18:38:52.990Z,102789.18
2018-11-14T18:41:20.600Z,102790.53
2018-11-14T18:43:48.318Z,102789.18
2018-11-14T18:46:15.988Z,102789.65
2018-11-14T18:48:43.604Z,102781.31
2018-11-14T18:51:11.276Z,102780.00
2018-11-14T18:53:38.926Z,102783.08
2018-11-14T18:56:06.593Z,102780.88
2018-11-14T18:58:34.272Z,102782.19
2018-11-14T19:01:01.903Z,102776.94
2018-11-14T19:03:29.656Z,102776.06
2018-11-14T19:05:57.276Z,102765.56
2018-11-14T19:08:24.918Z,102779.61
2018-11-14T19:10:52.618Z,102781.00
2018-11-14T19:13:20.638Z,102784.95
2018-11-14T19:15:48.267Z,102781.89
2018-11-14T19:18:18.953Z,102787.97
2018-11-14T19:20:46.757Z,102788.41
2018-11-14T19:23:14.528Z,102787.95
2018-11-14T19:25:42.130Z,102795.81
2018-11-14T19:28:09.715Z,102798.46
2018-11-14T19:30:38.115Z,102797.61
2018-11-14T19:33:05.732Z,102795.42
2018-11-14T19:35:33.367Z,102801.53
2018-11-14T19:38:01.351Z,102803.28
2018-11-14T19:40:31.244Z,102798.94
2018-11-14T19:43:00.335Z,102798.52
2018-11-14T19:45:29.604Z,102800.69
2018-11-14T19:47:57.232Z,102802.89
2018-11-14T19:50:25.237Z,102797.23
2018-11-14T19:52:53.182Z,102797.23
2018-11-14T19:55:22.110Z,102796.81
2018-11-14T19:57:51.045Z,102798.11
2018-11-14T20:00:25.458Z,102793.77
2018-11-14T20:02:53.102Z,102799.44
2018-11-14T20:05:21.096Z,102793.33
2018-11-14T20:07:48.752Z,102787.20
2018-11-14T20:10:17.833Z,102787.20
2018-11-14T20:12:46.128Z,102784.59
2018-11-14T20:15:15.237Z,102788.53
2018-11-14T20:17:43.886Z,102789.83
2018-11-14T20:20:15.109Z,102790.70
2018-11-14T20:22:43.634Z,102789.39
2018-11-14T20:25:11.272Z,102796.81
2018-11-14T20:27:39.566Z,102806.44
2018-11-14T20:30:12.784Z,102806.88
2018-11-14T20:32:40.592Z,102809.03
2018-11-14T20:35:08.893Z,102812.55
2018-11-14T20:37:36.678Z,102802.95
2018-11-14T20:40:05.592Z,102802.94
2018-11-14T20:42:33.215Z,102807.77
2018-11-14T20:45:00.873Z,102805.99
2018-11-14T20:47:28.521Z,102802.94
2018-11-14T20:49:56.159Z,102800.75
2018-11-14T20:52:23.824Z,102796.37
2018-11-14T20:54:51.474Z,102800.75
2018-11-14T20:57:19.062Z,102799.86
2018-11-14T20:59:46.711Z,102792.86
2018-11-14T21:02:14.386Z,102792.45
2018-11-14T21:04:42.013Z,102791.61
2018-11-14T21:07:09.629Z,102792.96
2018-11-14T21:09:37.267Z,102794.27
2018-11-14T21:12:04.953Z,102791.61
2018-11-14T21:14:32.621Z,102791.61
2018-11-14T21:17:00.351Z,102790.70
2018-11-14T21:19:28.021Z,102790.27
2018-11-14T21:21:55.761Z,102791.58
2018-11-14T21:24:23.387Z,102788.08
2018-11-14T21:26:51.033Z,102789.46
2018-11-14T21:29:18.786Z,102785.95
2018-11-14T21:31:46.412Z,102794.23
2018-11-14T21:34:14.061Z,102790.72
2018-11-14T21:36:41.775Z,102788.97
2018-11-14T21:39:11.806Z,102789.83
2018-11-14T21:41:39.404Z,102789.37
2018-11-14T21:44:07.169Z,102789.37
2018-11-14T21:46:34.941Z,102792.02
2018-11-14T21:49:03.547Z,102792.02
2018-11-14T21:51:31.144Z,102794.63
2018-11-14T21:53:58.864Z,102797.25
2018-11-14T21:56:26.505Z,102796.81
2018-11-14T21:58:54.096Z,102798.06
2018-11-14T22:01:21.771Z,102799.40
2018-11-14T22:03:49.363Z,102807.27
2018-11-14T22:06:17.127Z,102802.02
2018-11-14T22:08:44.913Z,102795.03
2018-11-14T22:11:12.553Z,102796.78
2018-11-14T22:13:40.348Z,102792.84
2018-11-14T22:16:07.935Z,102783.66
2018-11-14T22:18:35.532Z,102783.19
2018-11-14T22:21:03.359Z,102788.87
2018-11-14T22:23:30.965Z,102797.17
2018-11-14T22:25:58.627Z,102791.07
2018-11-14T22:28:26.434Z,102791.92
2018-11-14T22:30:54.005Z,102789.76
2018-11-14T22:33:21.645Z,102791.89
2018-11-14T22:35:49.275Z,102791.89
2018-11-14T22:38:16.955Z,102783.60
2018-11-14T22:40:44.566Z,102792.34
2018-11-14T22:43:12.200Z,102796.69
2018-11-14T22:45:39.887Z,102798.44
2018-11-14T22:48:07.494Z,102805.87
2018-11-14T22:50:35.145Z,102801.94
2018-11-14T22:53:02.741Z,102800.20
2018-11-14T22:55:30.378Z,102801.89
2018-11-14T22:57:57.993Z,102801.45
2018-11-14T23:00:47.023Z,102793.11
2018-11-14T23:03:14.653Z,102797.08
2018-11-14T23:05:42.266Z,102795.34
2018-11-14T23:08:09.903Z,102797.06
2018-11-14T23:10:37.533Z,102798.81
2018-11-14T23:13:05.320Z,102800.59
2018-11-14T23:15:32.974Z,102797.52
2018-11-14T23:18:00.607Z,102800.58
2018-11-14T23:23:09.838Z,102799.22
2018-11-14T23:25:37.512Z,102802.72
2018-11-14T23:28:05.214Z,102798.33
2018-11-14T23:30:33.001Z,102795.25
2018-11-14T23:33:00.663Z,102801.39
2018-11-14T23:35:29.576Z,102800.97
2018-11-14T23:38:01.463Z,102805.73
2018-11-14T23:40:29.239Z,102802.28
2018-11-14T23:42:56.970Z,102802.28
2018-11-14T23:45:25.486Z,102808.37
2018-11-14T23:47:53.155Z,102806.61
2018-11-14T23:50:22.987Z,102805.30
2018-11-14T23:52:51.744Z,102796.99
2018-11-14T23:55:20.094Z,102800.48
2018-11-14T23:57:47.790Z,102798.30
